Time;durP1;ratioP1;P1;durP2;ratioP2;P2;SDS_P1;SDS_P2;PMS_P1;PMS_P2;Temp;Humidity;BMP_temperature;BMP_pressure;BME280_temperature;BME280_humidity;BME280_pressure;Samples;Min_cycle;Max_cycle;Signal;HPM_P1;HPM_P2
2022/12/21 00:01:23;;;;;;;27.15;3.33;;;;;;;8.04;100.00;100246.75;5117046;28;20030;-68
2022/12/21 00:03:54;;;;;;;21.33;3.05;;;;;;;8.01;100.00;100234.56;5090494;28;20019;-70
2022/12/21 00:06:19;;;;;;;21.90;2.90;;;;;;;7.92;100.00;100225.06;5113176;28;20110;-68
2022/12/21 00:08:47;;;;;;;23.33;3.70;;;;;;;7.96;100.00;100227.16;5112405;28;20461;-67
2022/12/21 00:11:14;;;;;;;19.05;3.63;;;;;;;8.00;100.00;100222.22;5105133;28;20024;-68
2022/12/21 00:13:41;;;;;;;16.75;3.67;;;;;;;8.05;100.00;100218.97;5116787;28;20059;-68
2022/12/21 00:16:10;;;;;;;29.88;4.68;;;;;;;8.06;100.00;100207.22;5091177;28;20050;-67
2022/12/21 00:18:37;;;;;;;28.20;4.85;;;;;;;8.04;100.00;100204.72;5112280;28;20032;-79
2022/12/21 00:21:05;;;;;;;31.35;4.80;;;;;;;8.03;100.00;100207.59;5123516;28;20028;-81
2022/12/21 00:23:32;;;;;;;17.33;3.78;;;;;;;8.04;100.00;100210.06;5108033;28;20039;-68
2022/12/21 00:25:59;;;;;;;29.67;4.10;;;;;;;7.97;100.00;100204.69;5111462;28;20020;-68
2022/12/21 00:28:25;;;;;;;23.98;5.30;;;;;;;7.85;100.00;100184.84;5107331;28;20031;-68
2022/12/21 00:30:51;;;;;;;25.40;3.92;;;;;;;7.98;100.00;100195.63;5106956;28;20461;-68
2022/12/21 00:33:16;;;;;;;20.13;3.85;;;;;;;8.02;100.00;100188.03;5115442;28;20088;-68
2022/12/21 00:35:51;;;;;;;21.17;3.83;;;;;;;7.98;100.00;100192.13;5103492;28;20034;-68
2022/12/21 00:38:18;;;;;;;20.90;3.80;;;;;;;7.89;100.00;100163.84;5112371;28;20050;-68
2022/12/21 00:40:44;;;;;;;22.42;3.40;;;;;;;7.98;100.00;100184.91;5111961;28;20038;-68
2022/12/21 00:43:11;;;;;;;26.20;3.80;;;;;;;8.05;100.00;100206.41;5104877;28;20053;-68
2022/12/21 00:45:36;;;;;;;27.60;4.47;;;;;;;8.02;100.00;100205.97;5115603;28;20406;-68
2022/12/21 00:48:02;;;;;;;23.55;3.88;;;;;;;7.95;100.00;100204.06;5099350;28;20020;-68
2022/12/21 00:50:27;;;;;;;20.98;3.95;;;;;;;7.89;100.00;100204.84;5109405;28;20035;-68
2022/12/21 00:52:53;;;;;;;31.80;4.22;;;;;;;7.71;100.00;100191.09;5088085;28;20036;-68
2022/12/21 00:55:19;;;;;;;30.13;4.47;;;;;;;7.93;100.00;100216.00;5116360;28;20127;-68
2022/12/21 00:57:44;;;;;;;20.20;3.67;;;;;;;7.81;100.00;100182.72;5103600;28;20036;-68
2022/12/21 01:00:10;;;;;;;22.55;3.80;;;;;;;7.92;100.00;100204.47;5094824;28;20566;-68
2022/12/21 01:02:36;;;;;;;32.20;3.90;;;;;;;7.96;100.00;100197.69;5110615;28;20042;-68
2022/12/21 01:05:02;;;;;;;35.03;4.07;;;;;;;7.98;100.00;100198.31;5103702;28;20115;-68
2022/12/21 01:07:27;;;;;;;33.65;3.83;;;;;;;7.94;100.00;100186.31;5116783;28;20491;-67
2022/12/21 01:09:53;;;;;;;33.53;4.78;;;;;;;8.01;100.00;100181.00;5104548;28;20054;-67
2022/12/21 01:12:18;;;;;;;32.10;3.50;;;;;;;7.89;100.00;100156.63;5111695;28;20087;-67
2022/12/21 01:14:44;;;;;;;23.63;3.50;;;;;;;8.00;100.00;100177.50;5115751;28;20107;-68
2022/12/21 01:17:12;;;;;;;28.08;3.60;;;;;;;8.06;100.00;100189.28;5106348;28;20036;-68
2022/12/21 01:19:37;;;;;;;28.17;3.40;;;;;;;8.02;100.00;100205.97;5120444;28;20073;-68
2022/12/21 01:22:03;;;;;;;26.75;3.97;;;;;;;8.02;100.00;100200.59;5107923;28;20031;-68
2022/12/21 01:24:28;;;;;;;28.95;3.97;;;;;;;8.03;100.00;100207.59;5114039;28;20078;-68
2022/12/21 01:26:54;;;;;;;40.95;4.43;;;;;;;7.99;100.00;100197.28;5116728;28;20100;-68
2022/12/21 01:29:19;;;;;;;22.42;3.25;;;;;;;7.99;100.00;100202.63;5088254;28;20514;-67
2022/12/21 01:31:45;;;;;;;26.05;4.38;;;;;;;8.02;100.00;100201.44;5101709;28;20036;-67
2022/12/21 01:34:10;;;;;;;29.83;3.50;;;;;;;8.05;100.00;100218.97;5109307;28;20028;-68
2022/12/21 01:36:35;;;;;;;22.63;3.17;;;;;;;8.07;100.00;100220.41;5110664;28;20046;-68
2022/12/21 01:39:01;;;;;;;25.63;3.78;;;;;;;8.02;100.00;100224.72;5116112;28;20036;-67
2022/12/21 01:41:27;;;;;;;33.38;3.95;;;;;;;8.10;100.00;100232.59;5105171;28;20040;-67
2022/12/21 01:43:54;;;;;;;27.90;3.58;;;;;;;8.08;100.00;100219.41;5118344;28;20027;-67
2022/12/21 01:46:35;;;;;;;39.08;4.65;;;;;;;8.11;100.00;100221.69;5112071;28;20509;-67
2022/12/21 01:49:17;;;;;;;33.45;4.63;;;;;;;8.11;100.00;100202.06;5109014;27;20132;-67
2022/12/21 01:51:46;;;;;;;31.05;4.00;;;;;;;8.10;100.00;100195.06;5117938;28;20028;-67
2022/12/21 01:54:16;;;;;;;33.20;4.43;;;;;;;8.14;100.00;100201.69;5109411;28;20019;-68
2022/12/21 01:56:44;;;;;;;30.38;4.18;;;;;;;8.19;100.00;100208.13;5111452;28;20039;-69
2022/12/21 01:59:19;;;;;;;30.63;3.90;;;;;;;8.18;100.00;100202.97;5118599;28;20386;-67
2022/12/21 02:01:45;;;;;;;28.98;3.40;;;;;;;8.18;100.00;100206.47;5090631;28;20019;-68
2022/12/21 02:04:11;;;;;;;30.58;4.45;;;;;;;8.22;100.00;100205.03;5116208;28;20160;-68
2022/12/21 02:06:46;;;;;;;31.48;4.78;;;;;;;8.26;100.00;100213.50;5112084;28;20027;-67
2022/12/21 02:09:14;;;;;;;31.42;4.20;;;;;;;8.28;100.00;100214.16;5106540;28;20038;-68
2022/12/21 02:11:41;;;;;;;23.73;4.05;;;;;;;8.24;100.00;100208.34;5118885;28;20032;-68
2022/12/21 02:14:16;;;;;;;31.85;4.05;;;;;;;8.25;100.00;100198.47;5107601;28;20047;-68
2022/12/21 02:17:07;;;;;;;37.00;4.88;;;;;;;8.31;100.00;100204.84;5110142;28;20036;-67
2022/12/21 02:20:13;;;;;;;27.65;4.22;;;;;;;8.23;100.00;100222.75;5078108;28;20051;-67
2022/12/21 02:22:50;;;;;;;29.90;4.13;;;;;;;8.26;100.00;100221.53;5111196;28;20055;-68
2022/12/21 02:25:46;;;;;;;35.85;4.50;;;;;;;8.28;100.00;100216.81;5117228;28;20383;-68
2022/12/21 02:28:46;;;;;;;34.17;5.20;;;;;;;8.23;100.00;100213.91;5096741;28;20050;-67
2022/12/21 02:31:39;;;;;;;39.00;5.55;;;;;;;8.18;100.00;100208.31;5105112;28;20477;-67
2022/12/21 02:34:23;;;;;;;34.10;5.72;;;;;;;8.11;100.00;100210.13;5093193;28;20020;-69
2022/12/21 02:37:07;;;;;;;27.77;6.35;;;;;;;8.07;100.00;100211.53;5109381;28;20030;-67
2022/12/21 02:39:40;;;;;;;34.83;7.68;;;;;;;7.97;100.00;100199.31;5119122;28;20032;-67
2022/12/21 02:45:27;;;;;;;44.58;8.80;;;;;;;8.02;100.00;100203.28;5082496;28;20078;-68
2022/12/21 02:48:05;;;;;;;43.17;8.73;;;;;;;8.02;100.00;100217.50;5083862;28;20028;-68
2022/12/21 02:50:36;;;;;;;44.95;8.82;;;;;;;7.87;100.00;100196.16;5089107;28;20042;-67
2022/12/21 02:53:15;;;;;;;38.72;8.55;;;;;;;7.97;100.00;100218.06;5076506;28;20139;-68
2022/12/21 02:55:45;;;;;;;36.97;8.20;;;;;;;7.97;100.00;100215.41;5082413;28;20039;-67
2022/12/21 02:58:16;;;;;;;31.00;8.15;;;;;;;8.06;100.00;100210.72;5074622;28;20035;-68
2022/12/21 03:01:15;;;;;;;36.35;8.15;;;;;;;8.13;100.00;100210.75;5090355;28;20059;-67
2022/12/21 03:04:12;;;;;;;37.92;8.18;;;;;;;8.14;100.00;100207.88;5080228;28;20292;-68
2022/12/21 03:06:51;;;;;;;32.42;7.68;;;;;;;8.11;100.00;100197.56;5070600;28;20477;-68
2022/12/21 03:09:38;;;;;;;41.80;8.27;;;;;;;8.17;100.00;100198.59;5094706;28;20355;-67
2022/12/21 03:12:09;;;;;;;41.72;7.88;;;;;;;8.21;100.00;100207.91;5070935;28;20024;-68
2022/12/21 03:14:49;;;;;;;37.50;8.30;;;;;;;8.27;100.00;100212.47;5089237;28;20048;-68
2022/12/21 03:17:45;;;;;;;49.13;8.95;;;;;;;8.21;100.00;100207.91;5116865;28;20031;-68
2022/12/21 03:20:23;;;;;;;45.03;9.85;;;;;;;8.26;100.00;100202.78;5095138;28;20493;-67
2022/12/21 03:23:36;;;;;;;43.88;9.73;;;;;;;8.34;100.00;100210.66;5109401;28;20028;-66
2022/12/21 03:26:12;;;;;;;42.47;9.57;;;;;;;8.21;100.00;100199.84;5082635;28;20031;-70
2022/12/21 03:28:41;;;;;;;52.10;10.23;;;;;;;8.29;100.00;100190.84;5110289;28;20039;-67
2022/12/21 03:31:13;;;;;;;49.00;10.60;;;;;;;8.24;100.00;100192.28;5115245;28;20398;-67
2022/12/21 03:33:45;;;;;;;35.13;9.57;;;;;;;8.22;100.00;100188.13;5102119;28;20024;-68
2022/12/21 03:36:18;;;;;;;47.17;10.50;;;;;;;8.29;100.00;100188.16;5111925;28;20076;-67
2022/12/21 03:38:50;;;;;;;55.85;10.93;;;;;;;8.27;100.00;100185.66;5112008;28;20396;-68
2022/12/21 03:41:22;;;;;;;44.28;10.90;;;;;;;8.22;100.00;100191.63;5104419;28;20024;-68
2022/12/21 03:43:51;;;;;;;42.22;10.40;;;;;;;8.05;100.00;100160.03;5087767;28;20034;-67
2022/12/21 03:46:34;;;;;;;39.30;10.23;;;;;;;8.23;100.00;100190.59;5111186;28;20019;-67
2022/12/21 03:49:05;;;;;;;39.72;9.85;;;;;;;8.17;100.00;100183.34;5113967;28;20492;-68
2022/12/21 03:51:39;;;;;;;46.92;9.32;;;;;;;8.16;100.00;100183.56;5102717;28;20047;-68
2022/12/21 03:54:16;;;;;;;42.75;9.05;;;;;;;8.18;100.00;100184.19;5112819;28;20047;-67
2022/12/21 03:56:42;;;;;;;44.55;8.00;;;;;;;8.17;100.00;100196.75;5110412;28;20387;-67
2022/12/21 03:59:12;;;;;;;35.83;8.50;;;;;;;8.14;100.00;100189.09;5105247;28;20039;-67
2022/12/21 04:01:56;;;;;;;45.03;9.10;;;;;;;8.07;100.00;100155.28;5115297;28;20099;-67
2022/12/21 04:04:52;;;;;;;38.17;8.32;;;;;;;8.22;100.00;100188.13;5108202;28;20671;-67
2022/12/21 04:07:24;;;;;;;39.75;7.40;;;;;;;8.18;100.00;100174.31;5098042;28;20086;-67
2022/12/21 04:10:23;;;;;;;46.70;9.40;;;;;;;8.28;100.00;100192.69;5102219;28;20165;-68
2022/12/21 04:12:48;;;;;;;52.42;8.20;;;;;;;8.38;100.00;100189.69;5054348;28;20043;-69
2022/12/21 04:15:15;;;;;;;47.03;8.80;;;;;;;8.27;100.00;100191.03;5114303;28;20040;-69
2022/12/21 04:17:43;;;;;;;60.55;9.02;;;;;;;8.32;100.00;100199.31;5101919;28;20032;-67
2022/12/21 04:20:12;;;;;;;52.17;9.63;;;;;;;8.16;100.00;100180.88;5112231;28;20020;-67
2022/12/21 04:28:28;;;;;;;56.72;11.35;;;;;;;8.29;100.00;100190.84;5113070;28;20260;-67
2022/12/21 04:30:55;;;;;;;54.65;11.60;;;;;;;8.31;100.00;100199.50;5112537;28;20028;-68
2022/12/21 04:33:22;;;;;;;57.85;10.75;;;;;;;8.29;100.00;100191.66;5103663;28;20139;-68
2022/12/21 04:38:35;;;;;;;72.75;12.23;;;;;;;8.22;100.00;100194.31;5110148;28;20043;-67
2022/12/21 04:41:01;;;;;;;56.13;11.23;;;;;;;8.23;100.00;100192.47;5114130;28;20036;-67
2022/12/21 04:43:27;;;;;;;51.75;11.35;;;;;;;8.24;100.00;100197.63;5102224;28;20035;-68
2022/12/21 04:46:00;;;;;;;57.50;11.77;;;;;;;8.25;100.00;100187.75;5115199;28;20165;-67
2022/12/21 04:48:26;;;;;;;64.70;13.13;;;;;;;8.27;100.00;100188.34;5106116;28;20031;-68
2022/12/21 04:50:52;;;;;;;62.03;12.80;;;;;;;8.26;100.00;100181.34;5106929;28;20051;-68
2022/12/21 04:53:17;;;;;;;64.05;12.85;;;;;;;8.34;100.00;100180.34;5116178;28;20482;-68
2022/12/21 04:55:45;;;;;;;53.47;13.10;;;;;;;8.16;100.00;100154.09;5103776;28;20118;-68
2022/12/21 04:58:10;;;;;;;45.17;9.82;;;;;;;8.05;100.00;100142.09;5113650;28;20056;-67
2022/12/21 05:00:36;;;;;;;57.70;12.65;;;;;;;8.30;100.00;100176.41;5110266;28;20038;-67
2022/12/21 05:03:01;;;;;;;67.65;12.52;;;;;;;8.33;100.00;100190.22;5104928;28;20036;-67
2022/12/21 05:05:27;;;;;;;57.92;11.98;;;;;;;8.30;100.00;100190.63;5116844;28;20500;-68
2022/12/21 05:07:53;;;;;;;59.15;12.15;;;;;;;8.23;100.00;100184.41;5102101;28;20031;-68
2022/12/21 05:10:18;;;;;;;62.67;11.05;;;;;;;8.24;100.00;100186.91;5110403;28;20040;-68
2022/12/21 05:12:44;;;;;;;68.68;11.77;;;;;;;8.28;100.00;100195.38;5108412;28;20035;-68
2022/12/21 05:15:10;;;;;;;49.90;10.30;;;;;;;8.25;100.00;100190.41;5104658;28;20113;-67
2022/12/21 05:17:35;;;;;;;50.28;10.38;;;;;;;8.28;100.00;100198.06;5114414;28;20051;-68
2022/12/21 05:20:01;;;;;;;48.55;10.07;;;;;;;8.23;100.00;100198.63;5104825;28;20407;-68
2022/12/21 05:22:26;;;;;;;41.67;9.35;;;;;;;8.12;100.00;100190.34;5110667;28;20020;-68
2022/12/21 05:24:51;;;;;;;51.47;10.18;;;;;;;8.14;100.00;100210.53;5109979;28;20031;-69
2022/12/21 05:27:17;;;;;;;52.70;11.30;;;;;;;8.18;100.00;100200.28;5107909;28;20032;-84
2022/12/21 05:29:42;;;;;;;49.00;11.45;;;;;;;8.14;100.00;100199.81;5128298;28;20541;-80
2022/12/21 05:32:08;;;;;;;67.95;12.20;;;;;;;8.14;100.00;100202.50;5108415;28;20023;-68
2022/12/21 05:34:33;;;;;;;51.08;12.48;;;;;;;8.07;100.00;100190.94;5102057;28;20109;-68
2022/12/21 05:36:58;;;;;;;63.67;11.38;;;;;;;8.20;100.00;100187.50;5108776;28;20482;-68
2022/12/21 05:39:24;;;;;;;58.65;10.77;;;;;;;8.11;100.00;100194.03;5100958;28;20111;-67
2022/12/21 05:41:49;;;;;;;57.95;11.20;;;;;;;8.06;100.00;100186.59;5114821;28;20047;-68
2022/12/21 05:44:15;;;;;;;53.42;11.23;;;;;;;7.82;100.00;100166.47;5105331;28;20030;-68
2022/12/21 05:46:40;;;;;;;54.75;9.93;;;;;;;7.97;100.00;100201.19;5107167;28;20040;-67
2022/12/21 05:49:05;;;;;;;47.90;9.90;;;;;;;7.97;100.00;100207.34;5111147;28;20035;-69
2022/12/21 05:51:31;;;;;;;64.78;10.48;;;;;;;8.00;100.00;100192.75;5100065;28;20036;-68
2022/12/21 05:53:56;;;;;;;55.35;10.13;;;;;;;7.92;100.00;100199.09;5111794;28;20024;-67
2022/12/21 05:56:22;;;;;;;58.63;10.55;;;;;;;7.92;100.00;100201.78;5106574;28;20042;-67
2022/12/21 05:58:48;;;;;;;67.22;10.77;;;;;;;7.99;100.00;100205.31;5106947;28;20036;-68
2022/12/21 06:01:13;;;;;;;50.50;10.27;;;;;;;7.90;100.00;100186.91;5115920;28;20031;-68
2022/12/21 06:03:40;;;;;;;44.30;9.50;;;;;;;7.99;100.00;100216.03;5103836;28;20031;-68
2022/12/21 06:06:13;;;;;;;50.45;9.57;;;;;;;7.97;100.00;100218.06;5116333;28;20089;-68
2022/12/21 06:08:39;;;;;;;47.88;8.52;;;;;;;7.96;100.00;100224.47;5111951;28;20043;-68
2022/12/21 06:11:06;;;;;;;45.50;9.13;;;;;;;7.95;100.00;100209.41;5106344;28;20032;-67
2022/12/21 06:13:31;;;;;;;52.63;9.25;;;;;;;7.81;100.00;100191.59;5118379;28;20056;-67
2022/12/21 06:16:05;;;;;;;44.13;8.70;;;;;;;7.97;100.00;100219.94;5088033;28;20072;-67
2022/12/21 06:18:30;;;;;;;46.45;8.80;;;;;;;7.96;100.00;100224.47;5110912;28;20052;-67
2022/12/21 06:20:56;;;;;;;45.97;8.82;;;;;;;7.83;100.00;100205.63;5113530;28;20051;-68
2022/12/21 06:23:21;;;;;;;59.42;9.13;;;;;;;7.93;100.00;100219.50;5106049;27;20039;-68
2022/12/21 06:25:46;;;;;;;53.63;9.05;;;;;;;7.80;100.00;100211.38;5118561;28;20095;-68
2022/12/21 06:28:12;;;;;;;60.45;8.88;;;;;;;7.89;100.00;100234.31;5108210;28;20027;-68
2022/12/21 06:30:37;;;;;;;47.40;8.32;;;;;;;7.72;100.00;100203.50;5109807;28;20075;-68
2022/12/21 06:33:03;;;;;;;56.85;8.57;;;;;;;7.77;100.00;100225.16;5096765;28;20516;-67
2022/12/21 06:35:28;;;;;;;63.75;9.30;;;;;;;7.73;100.00;100226.56;5086113;28;20042;-68
2022/12/21 06:37:54;;;;;;;60.83;9.85;;;;;;;7.76;100.00;100232.38;5115608;28;20039;-68
2022/12/21 06:40:20;;;;;;;49.25;9.18;;;;;;;7.81;100.00;100239.81;5107401;28;20106;-68
2022/12/21 06:42:46;;;;;;;56.03;9.27;;;;;;;7.73;100.00;100226.56;5109846;28;20028;-68
2022/12/21 06:45:11;;;;;;;59.75;9.18;;;;;;;7.75;100.00;100228.03;5115999;28;20035;-68
2022/12/21 06:47:36;;;;;;;62.22;9.60;;;;;;;7.69;100.00;100238.69;5104365;28;20119;-68
2022/12/21 06:50:02;;;;;;;57.35;10.13;;;;;;;7.71;100.00;100233.97;5097399;28;20032;-68
2022/12/21 06:52:27;;;;;;;67.82;9.55;;;;;;;7.67;100.00;100243.41;5109939;28;20035;-68
2022/12/21 06:54:53;;;;;;;56.20;10.00;;;;;;;7.62;100.00;100235.16;5073569;28;20099;-67
2022/12/21 06:57:18;;;;;;;49.80;8.82;;;;;;;7.76;100.00;100245.75;5116818;28;20085;-68
2022/12/21 06:59:44;;;;;;;60.63;9.20;;;;;;;7.70;100.00;100243.84;5107164;28;20039;-81
2022/12/21 07:02:10;;;;;;;48.15;9.88;;;;;;;7.66;100.00;100245.25;5124733;28;20024;-82
2022/12/21 07:04:35;;;;;;;64.28;10.00;;;;;;;7.73;100.00;100254.16;5098606;28;20034;-69
2022/12/21 07:07:01;;;;;;;56.55;9.30;;;;;;;7.73;100.00;100248.00;5101017;28;20036;-68
2022/12/21 07:09:26;;;;;;;55.97;8.68;;;;;;;7.84;100.00;100252.81;5115297;28;20028;-68
2022/12/21 07:11:52;;;;;;;53.83;8.13;;;;;;;7.79;100.00;100247.22;5105058;28;20032;-68
2022/12/21 07:14:18;;;;;;;58.05;8.32;;;;;;;7.94;100.00;100255.16;5096582;28;20498;-68
2022/12/21 07:16:43;;;;;;;55.05;8.23;;;;;;;7.96;100.00;100253.13;5113263;28;20024;-68
2022/12/21 07:19:09;;;;;;;45.03;7.40;;;;;;;7.86;100.00;100242.72;5105122;28;20035;-68
2022/12/21 07:21:34;;;;;;;63.00;8.73;;;;;;;7.88;100.00;100240.69;5117747;28;20043;-68
2022/12/21 07:24:00;;;;;;;53.15;8.52;;;;;;;7.91;100.00;100256.38;5105809;28;20031;-68
2022/12/21 07:26:25;;;;;;;51.38;7.93;;;;;;;7.94;100.00;100263.19;5093769;28;20032;-68
2022/12/21 07:28:51;;;;;;;48.55;7.78;;;;;;;7.62;100.00;100229.78;5113144;28;20032;-67
2022/12/21 07:31:24;;;;;;;56.30;7.95;;;;;;;7.80;100.00;100262.25;5105027;28;20050;-67
2022/12/21 07:33:50;;;;;;;51.58;8.30;;;;;;;7.89;100.00;100261.09;5116438;27;20772;-67
2022/12/21 07:36:16;;;;;;;52.88;6.65;;;;;;;7.88;100.00;100267.50;5106685;28;20058;-67
2022/12/21 07:38:42;;;;;;;58.95;7.90;;;;;;;7.86;100.00;100268.69;5109243;28;20112;-68
2022/12/21 07:41:10;;;;;;;55.85;8.18;;;;;;;7.85;100.00;100272.41;5114230;28;20100;-71
2022/12/21 07:43:37;;;;;;;47.83;6.97;;;;;;;7.81;100.00;100271.94;5102862;28;20023;-70
2022/12/21 07:46:03;;;;;;;45.67;6.60;;;;;;;7.68;100.00;100270.00;5115905;28;20024;-72
2022/12/21 07:48:32;;;;;;;57.78;7.25;;;;;;;7.71;100.00;100276.81;5110132;28;20030;-73
2022/12/21 07:50:58;;;;;;;53.92;7.40;;;;;;;7.78;100.00;100288.41;5090013;28;20036;-73
2022/12/21 07:53:23;;;;;;;57.63;7.70;;;;;;;7.72;100.00;100281.97;5116260;28;20097;-71
2022/12/21 07:55:49;;;;;;;47.08;7.57;;;;;;;7.73;100.00;100296.19;5102820;28;20083;-70
2022/12/21 07:58:15;;;;;;;48.03;7.20;;;;;;;7.69;100.00;100303.78;5113400;28;20043;-69
2022/12/21 08:00:40;;;;;;;49.15;7.93;;;;;;;7.67;100.00;100296.97;5110449;28;20039;-69
2022/12/21 08:03:08;;;;;;;56.05;7.78;;;;;;;7.65;100.00;100299.84;5105564;28;20035;-70
2022/12/21 08:05:34;;;;;;;64.25;8.18;;;;;;;7.66;100.00;100289.97;5115973;28;20051;-69
2022/12/21 08:08:02;;;;;;;53.47;7.97;;;;;;;7.63;100.00;100293.03;5104150;28;20387;-69
2022/12/21 08:10:28;;;;;;;56.08;8.20;;;;;;;7.68;100.00;100298.63;5110081;28;20083;-72
2022/12/21 08:12:56;;;;;;;56.92;7.30;;;;;;;7.67;100.00;100300.47;5111848;28;20036;-70
2022/12/21 08:15:21;;;;;;;53.45;7.18;;;;;;;7.68;100.00;100304.81;5102705;28;20032;-71
2022/12/21 08:17:48;;;;;;;50.50;7.47;;;;;;;7.68;100.00;100306.66;5115227;28;20043;-72
2022/12/21 08:20:14;;;;;;;55.40;7.75;;;;;;;7.67;100.00;100305.00;5105429;28;20401;-71
2022/12/21 08:22:39;;;;;;;48.97;7.68;;;;;;;7.62;100.00;100288.69;5109643;28;20042;-70
2022/12/21 08:25:05;;;;;;;52.17;7.40;;;;;;;7.67;100.00;100296.97;5114387;28;20024;-70
2022/12/21 08:27:30;;;;;;;45.63;6.25;;;;;;;7.72;100.00;100303.41;5101157;28;20028;-70
2022/12/21 08:29:58;;;;;;;54.13;7.05;;;;;;;7.75;100.00;100312.91;5116050;28;20024;-70
2022/12/21 08:32:23;;;;;;;56.25;6.40;;;;;;;7.75;100.00;100323.63;5089252;28;20038;-70
2022/12/21 08:34:49;;;;;;;50.03;6.28;;;;;;;7.63;100.00;100301.06;5108034;28;20091;-71
2022/12/21 08:37:14;;;;;;;47.50;6.40;;;;;;;7.42;100.00;100283.97;5119034;28;20095;-71
2022/12/21 08:39:40;;;;;;;42.05;6.75;;;;;;;7.68;100.00;100301.28;5084219;28;20042;-71
2022/12/21 08:42:05;;;;;;;39.00;6.05;;;;;;;7.45;100.00;100272.03;5121785;28;20036;-70
2022/12/21 08:44:30;;;;;;;47.08;6.18;;;;;;;7.72;100.00;100310.63;5109876;28;20562;-70
2022/12/21 08:46:56;;;;;;;56.85;7.40;;;;;;;7.66;100.00;100306.84;5103830;28;20491;-70
2022/12/21 08:49:21;;;;;;;58.55;6.63;;;;;;;7.62;100.00;100289.53;5116041;28;20096;-70
2022/12/21 08:51:47;;;;;;;47.42;6.57;;;;;;;7.51;100.00;100277.44;5102476;28;20026;-71
2022/12/21 08:54:12;;;;;;;43.58;6.25;;;;;;;7.68;100.00;100304.81;5095323;28;20035;-71
2022/12/21 08:56:38;;;;;;;58.22;7.65;;;;;;;7.69;100.00;100302.97;5108952;28;20485;-70
2022/12/21 08:59:08;;;;;;;59.15;7.13;;;;;;;7.65;100.00;100307.03;5104990;28;20046;-70
2022/12/21 09:01:34;;;;;;;54.33;8.35;;;;;;;7.69;100.00;100308.31;5114402;28;20031;-70
2022/12/21 09:04:03;;;;;;;43.72;6.53;;;;;;;7.69;100.00;100305.66;5102116;28;20126;-71
2022/12/21 09:06:29;;;;;;;60.10;8.55;;;;;;;7.71;100.00;100319.66;5110671;28;20445;-70
2022/12/21 09:08:57;;;;;;;52.72;7.13;;;;;;;7.52;100.00;100289.84;5111151;28;20034;-70
2022/12/21 09:11:29;;;;;;;49.10;8.35;;;;;;;7.49;100.00;100284.03;5085269;28;20036;-71
2022/12/21 09:13:55;;;;;;;51.30;7.95;;;;;;;7.56;100.00;100310.88;5085656;28;20104;-70
2022/12/21 09:16:23;;;;;;;46.38;8.63;;;;;;;7.65;100.00;100309.72;5112180;28;20206;-70
2022/12/21 09:18:49;;;;;;;45.20;8.82;;;;;;;7.60;100.00;100315.66;5110243;28;20032;-70
2022/12/21 09:21:16;;;;;;;53.50;9.32;;;;;;;7.66;100.00;100311.38;5104146;28;20466;-70
2022/12/21 09:23:42;;;;;;;53.35;10.00;;;;;;;7.62;100.00;100310.13;5096822;28;20118;-70
2022/12/21 09:26:08;;;;;;;53.80;10.35;;;;;;;7.65;100.00;100305.19;5105226;28;20055;-70
2022/12/21 09:28:35;;;;;;;46.45;10.88;;;;;;;7.52;100.00;100303.22;5109662;28;20456;-70
2022/12/21 09:31:15;;;;;;;50.17;11.52;;;;;;;7.64;100.00;100303.53;5110123;28;20027;-70
2022/12/21 09:33:42;;;;;;;56.88;10.60;;;;;;;7.64;100.00;100308.06;5102282;28;20149;-70
2022/12/21 09:36:09;;;;;;;41.75;10.07;;;;;;;7.50;100.00;100283.84;5117395;28;20016;-70
2022/12/21 09:38:35;;;;;;;57.72;12.52;;;;;;;7.68;100.00;100306.66;5112588;28;20501;-70
2022/12/21 09:41:23;;;;;;;43.53;11.40;;;;;;;7.49;100.00;100295.56;5091780;28;20442;-70
2022/12/21 09:44:19;;;;;;;55.80;12.07;;;;;;;7.53;100.00;100304.06;5118534;28;20065;-70
2022/12/21 09:46:48;;;;;;;40.53;10.43;;;;;;;7.40;100.00;100280.66;5041277;28;20037;-70
2022/12/21 09:49:21;;;;;;;52.25;10.10;;;;;;;7.56;100.00;100300.16;5108645;27;20036;-70
2022/12/21 09:51:55;;;;;;;68.65;10.68;;;;;;;7.57;100.00;100291.94;5117474;28;20032;-70
2022/12/21 09:54:31;;;;;;;64.10;9.75;;;;;;;7.59;100.00;100295.25;5108335;28;20375;-70
2022/12/21 09:56:57;;;;;;;63.75;10.75;;;;;;;7.59;100.00;100289.09;5109908;28;20032;-70
2022/12/21 09:59:22;;;;;;;67.38;10.52;;;;;;;7.43;100.00;100285.63;5118232;28;20035;-70
2022/12/21 10:01:57;;;;;;;51.20;9.02;;;;;;;7.52;100.00;100287.16;5087513;28;20019;-70
2022/12/21 10:04:35;;;;;;;57.92;10.50;;;;;;;7.49;100.00;100295.56;5121764;28;20494;-70
2022/12/21 10:07:33;;;;;;;55.30;10.73;;;;;;;7.46;100.00;100295.97;5109753;28;20051;-70
2022/12/21 10:10:20;;;;;;;62.03;11.38;;;;;;;7.59;100.00;100292.59;5088408;27;20035;-70
2022/12/21 10:13:27;;;;;;;64.38;12.55;;;;;;;7.63;100.00;100287.66;5112620;28;20023;-70
2022/12/21 10:16:02;;;;;;;56.67;11.63;;;;;;;7.71;100.00;100290.19;5024340;28;20029;-70
2022/12/21 10:18:40;;;;;;;79.40;13.75;;;;;;;7.71;100.00;100292.88;5100875;28;20039;-70
2022/12/21 10:21:21;;;;;;;79.28;14.43;;;;;;;7.77;100.00;100292.09;5113167;28;20035;-70
2022/12/21 10:23:49;;;;;;;74.13;14.18;;;;;;;7.83;100.00;100293.19;5103195;28;20050;-70
2022/12/21 10:26:19;;;;;;;57.85;12.95;;;;;;;7.83;100.00;100283.31;5114568;28;20103;-70
2022/12/21 10:28:56;;;;;;;49.00;11.88;;;;;;;7.93;100.00;100280.28;5112436;28;20444;-70
2022/12/21 10:31:45;;;;;;;51.72;13.18;;;;;;;7.98;100.00;100288.59;5104453;28;20032;-70
2022/12/21 10:34:29;;;;;;;58.85;13.75;;;;;;;8.00;100.00;100284.66;5093918;28;20083;-70
2022/12/21 10:36:58;;;;;;;70.13;13.88;;;;;;;7.91;100.00;100287.69;5109367;28;20445;-70
2022/12/21 10:39:24;;;;;;;76.78;13.00;;;;;;;7.92;100.00;100284.00;5116128;28;20099;-70
2022/12/21 10:42:16;;;;;;;65.60;13.23;;;;;;;7.92;100.00;100282.16;5103292;28;20109;-70
2022/12/21 10:44:41;;;;;;;71.95;13.85;;;;;;;7.95;100.00;100283.63;5112724;27;20499;-70
2022/12/21 10:47:13;;;;;;;72.78;14.13;;;;;;;7.71;100.00;100244.66;5114337;28;20028;-70
2022/12/21 10:49:41;;;;;;;67.45;14.50;;;;;;;8.04;100.00;100281.59;5102231;28;20032;-70
2022/12/21 10:52:33;;;;;;;93.82;13.90;;;;;;;7.98;100.00;100273.34;5116194;28;20024;-70
2022/12/21 10:54:58;;;;;;;63.80;12.85;;;;;;;7.95;100.00;100267.53;5116695;28;20069;-70
2022/12/21 10:57:32;;;;;;;66.72;11.80;;;;;;;7.93;100.00;100267.72;5106907;28;20074;-70
2022/12/21 11:00:04;;;;;;;64.63;12.73;;;;;;;7.96;100.00;100272.69;5092360;28;20053;-70
2022/12/21 11:02:45;;;;;;;48.17;11.38;;;;;;;7.83;100.00;100253.84;5115909;28;20036;-71
2022/12/21 11:05:29;;;;;;;54.85;11.63;;;;;;;8.00;100.00;100275.81;5117030;28;20031;-70
2022/12/21 11:08:14;;;;;;;63.55;12.13;;;;;;;8.00;100.00;100275.81;5091628;28;20085;-70
2022/12/21 11:10:42;;;;;;;47.90;11.50;;;;;;;7.94;100.00;100269.38;5113656;28;20028;-70
2022/12/21 11:13:11;;;;;;;48.42;11.85;;;;;;;7.92;100.00;100275.97;5117477;28;20047;-70
2022/12/21 11:15:37;;;;;;;56.03;12.18;;;;;;;7.97;100.00;100265.47;5107680;28;20047;-70
2022/12/21 11:18:03;;;;;;;55.50;12.52;;;;;;;7.93;100.00;100259.69;5119607;28;20024;-70
2022/12/21 11:20:29;;;;;;;48.50;11.57;;;;;;;7.94;100.00;100249.78;5089139;28;20027;-70
2022/12/21 11:22:57;;;;;;;57.70;11.85;;;;;;;8.03;100.00;100258.50;5089049;28;20394;-70
2022/12/21 11:25:29;;;;;;;58.83;12.50;;;;;;;7.98;100.00;100256.44;5115685;28;20023;-70
2022/12/21 11:27:59;;;;;;;52.97;11.32;;;;;;;7.91;100.00;100239.47;5086380;28;20029;-70
2022/12/21 11:30:31;;;;;;;78.25;12.60;;;;;;;8.01;100.00;100245.28;5110612;28;20028;-70
2022/12/21 11:33:01;;;;;;;82.72;12.35;;;;;;;7.95;100.00;100254.97;5111271;28;20023;-70
2022/12/21 11:35:30;;;;;;;56.33;11.43;;;;;;;7.95;100.00;100256.81;5103226;28;20058;-70
2022/12/21 11:38:10;;;;;;;63.03;11.05;;;;;;;7.80;100.00;100243.50;5086070;28;20096;-70
2022/12/21 11:40:36;;;;;;;45.83;11.82;;;;;;;7.98;100.00;100257.25;5110139;28;20020;-71